Time;durP1;ratioP1;P1;durP2;ratioP2;P2;SDS_P1;SDS_P2;PMS_P1;PMS_P2;Temp;Humidity;BMP_temperature;BMP_pressure;BME280_temperature;BME280_humidity;BME280_pressure;Samples;Min_cycle;Max_cycle;Signal;HPM_P1;HPM_P2
2023/04/09 00:02:25;;;;;;;78.05;34.33;;;;;;;9.27;100.00;102567.69;4893512;29;20065;-84
2023/04/09 00:04:51;;;;;;;73.93;33.55;;;;;;;9.10;100.00;102556.53;4905763;29;20039;-84
2023/04/09 00:07:16;;;;;;;64.78;32.45;;;;;;;9.18;100.00;102557.69;4893794;29;20038;-84
2023/04/09 00:09:41;;;;;;;70.05;32.72;;;;;;;9.30;100.00;102563.44;4908541;29;20164;-84
2023/04/09 00:12:07;;;;;;;66.20;29.73;;;;;;;9.29;100.00;102564.59;4908737;29;20110;-84
2023/04/09 00:14:32;;;;;;;74.15;34.65;;;;;;;9.45;100.00;102564.94;4903810;29;20064;-84
2023/04/09 00:16:57;;;;;;;76.55;35.22;;;;;;;9.28;100.00;102557.38;4891027;29;20027;-85
2023/04/09 00:19:23;;;;;;;73.03;32.88;;;;;;;9.29;100.00;102564.59;4908551;29;20038;-84
2023/04/09 00:21:49;;;;;;;67.07;32.60;;;;;;;9.26;100.00;102562.47;4907773;29;20042;-84
2023/04/09 00:24:14;;;;;;;79.60;36.63;;;;;;;9.10;100.00;102557.34;4906276;29;20465;-84
2023/04/09 00:26:40;;;;;;;70.20;34.13;;;;;;;9.15;100.00;102554.41;4906041;29;20506;-84
2023/04/09 00:29:05;;;;;;;80.15;35.13;;;;;;;9.10;100.00;102554.53;4912177;29;20020;-84
2023/04/09 00:31:31;;;;;;;80.20;37.30;;;;;;;8.92;100.00;102545.34;4912177;29;20777;-84
2023/04/09 00:33:57;;;;;;;83.35;39.13;;;;;;;8.86;100.00;102541.03;4907772;29;20454;-84
2023/04/09 00:36:22;;;;;;;79.63;36.17;;;;;;;9.05;100.00;102543.53;4901577;29;20042;-84
2023/04/09 00:38:49;;;;;;;76.43;34.72;;;;;;;9.03;100.00;102531.88;4893209;29;20099;-84
2023/04/09 00:41:16;;;;;;;79.80;37.38;;;;;;;9.19;100.00;102539.75;4910942;29;20486;-84
2023/04/09 00:43:41;;;;;;;73.43;34.15;;;;;;;9.14;100.00;102533.19;4893197;29;20032;-84
2023/04/09 00:46:07;;;;;;;75.53;35.40;;;;;;;9.11;100.00;102533.03;4896199;29;20027;-84
2023/04/09 00:48:32;;;;;;;81.45;35.40;;;;;;;8.90;100.00;102530.88;4903508;29;20044;-84
2023/04/09 00:50:58;;;;;;;67.82;32.30;;;;;;;9.01;100.00;102531.38;4890690;29;20142;-84
2023/04/09 00:53:24;;;;;;;76.18;35.90;;;;;;;8.97;100.00;102535.97;4891809;29;20091;-84
2023/04/09 00:55:49;;;;;;;68.63;33.33;;;;;;;9.11;100.00;102530.25;4902849;29;20047;-84
2023/04/09 00:58:15;;;;;;;78.80;34.95;;;;;;;9.07;100.00;102521.69;4890957;29;20032;-84
2023/04/09 01:00:40;;;;;;;85.88;38.33;;;;;;;8.97;100.00;102522.00;4901808;29;20062;-84
2023/04/09 01:03:06;;;;;;;66.70;31.65;;;;;;;9.13;100.00;102534.34;4886560;29;20055;-85
2023/04/09 01:06:00;;;;;;;68.47;34.53;;;;;;;9.05;100.00;102529.56;4905764;29;20328;-84
2023/04/09 01:08:28;;;;;;;75.10;33.50;;;;;;;8.96;100.00;102534.34;4903359;29;20169;-84
2023/04/09 01:11:22;;;;;;;75.40;35.00;;;;;;;8.80;100.00;102524.78;4886083;29;20218;-83
2023/04/09 01:14:18;;;;;;;64.38;30.40;;;;;;;8.94;100.00;102525.47;4911658;29;20031;-84
2023/04/09 01:16:50;;;;;;;69.55;32.25;;;;;;;8.90;100.00;102524.47;4901033;29;20403;-84
2023/04/09 01:19:37;;;;;;;71.10;32.47;;;;;;;9.00;100.00;102523.31;4900780;29;20032;-84
2023/04/09 01:22:09;;;;;;;74.30;32.88;;;;;;;8.90;100.00;102525.28;4902321;29;20046;-84
2023/04/09 01:24:37;;;;;;;64.70;30.38;;;;;;;8.98;100.00;102526.47;4906930;29;20087;-84
2023/04/09 01:27:05;;;;;;;63.33;30.80;;;;;;;9.06;100.00;102524.81;4909599;29;20039;-84
2023/04/09 01:29:34;;;;;;;58.65;30.00;;;;;;;9.08;100.00;102516.91;4884611;29;20481;-84
2023/04/09 01:32:01;;;;;;;61.22;31.33;;;;;;;9.06;100.00;102517.22;4903218;29;20039;-84
2023/04/09 01:34:28;;;;;;;68.93;34.33;;;;;;;9.04;100.00;102510.34;4906718;29;20653;-84
2023/04/09 01:36:56;;;;;;;65.10;29.75;;;;;;;9.06;100.00;102511.66;4899546;29;20046;-84
2023/04/09 01:39:22;;;;;;;63.92;31.50;;;;;;;8.99;100.00;102519.72;4907849;29;20682;-84
2023/04/09 01:41:49;;;;;;;74.05;33.92;;;;;;;8.91;100.00;102514.94;4891297;29;20044;-84
2023/04/09 01:44:16;;;;;;;72.00;34.03;;;;;;;8.93;100.00;102509.84;4889863;29;20039;-84
2023/04/09 01:46:41;;;;;;;68.63;30.88;;;;;;;8.85;100.00;102517.03;4886998;29;20028;-84
2023/04/09 01:49:09;;;;;;;70.03;34.25;;;;;;;8.77;100.00;102511.44;4911682;29;20050;-84
2023/04/09 01:51:35;;;;;;;65.30;32.97;;;;;;;8.87;100.00;102508.34;4905048;29;20036;-84
2023/04/09 01:54:01;;;;;;;77.82;35.13;;;;;;;8.88;100.00;102507.22;4904155;29;20055;-84
2023/04/09 01:56:26;;;;;;;67.35;31.80;;;;;;;8.91;100.00;102509.34;4910323;29;20122;-84
2023/04/09 01:58:51;;;;;;;67.63;33.83;;;;;;;8.77;100.00;102505.88;4889512;29;20501;-84
2023/04/09 02:01:34;;;;;;;63.42;30.88;;;;;;;8.90;100.00;102511.31;4904143;29;20415;-85
2023/04/09 02:04:02;;;;;;;58.88;30.33;;;;;;;8.90;100.00;102504.91;4903187;29;20031;-84
2023/04/09 02:06:58;;;;;;;64.10;30.67;;;;;;;8.92;100.00;102505.41;4887955;29;20040;-84
2023/04/09 02:09:28;;;;;;;64.10;30.27;;;;;;;8.98;100.00;102509.69;4909119;29;20402;-84
2023/04/09 02:11:57;;;;;;;56.30;27.98;;;;;;;8.94;100.00;102505.91;4904288;29;21624;-84
2023/04/09 02:14:25;;;;;;;66.90;30.10;;;;;;;8.91;100.00;102500.97;4889934;29;20090;-84
2023/04/09 02:16:51;;;;;;;74.25;32.10;;;;;;;8.78;100.00;102497.16;4905558;29;20031;-84
2023/04/09 02:19:16;;;;;;;71.63;31.13;;;;;;;8.78;100.00;102494.38;4907292;29;20107;-84
2023/04/09 02:21:43;;;;;;;63.70;29.65;;;;;;;8.84;100.00;102501.44;4907732;29;20050;-84
2023/04/09 02:24:08;;;;;;;67.82;30.10;;;;;;;8.74;100.00;102494.19;4909822;29;20063;-84
2023/04/09 02:26:33;;;;;;;58.55;29.15;;;;;;;8.95;100.00;102488.00;4912882;29;20615;-84
2023/04/09 02:28:59;;;;;;;61.15;31.10;;;;;;;8.82;100.00;102488.97;4916600;29;20039;-84
2023/04/09 02:31:24;;;;;;;61.55;31.35;;;;;;;8.86;100.00;102489.97;4923310;29;20447;-84
2023/04/09 02:33:50;;;;;;;64.15;30.38;;;;;;;8.85;100.00;102489.13;4912997;29;20106;-83
2023/04/09 02:36:15;;;;;;;57.47;29.58;;;;;;;8.86;100.00;102489.97;4928760;29;20410;-84
2023/04/09 02:38:41;;;;;;;56.90;29.60;;;;;;;8.77;100.00;102481.59;4925320;29;20040;-84
2023/04/09 02:41:07;;;;;;;75.65;34.63;;;;;;;8.62;100.00;102488.47;4922490;29;20172;-84
2023/04/09 02:43:32;;;;;;;62.53;30.42;;;;;;;8.69;100.00;102479.59;4923037;29;20110;-83
2023/04/09 02:45:57;;;;;;;62.47;31.17;;;;;;;8.82;100.00;102489.78;4910814;29;20090;-85
2023/04/09 02:48:23;;;;;;;58.85;28.50;;;;;;;8.82;100.00;102477.81;4909903;29;20036;-84
2023/04/09 02:50:48;;;;;;;68.50;32.92;;;;;;;8.77;100.00;102486.31;4929292;29;20036;-84
2023/04/09 02:53:13;;;;;;;62.28;29.90;;;;;;;8.78;100.00;102482.41;4925345;29;20039;-84
2023/04/09 02:55:39;;;;;;;66.53;30.63;;;;;;;8.91;100.00;102485.03;4921567;29;20040;-84
2023/04/09 02:58:04;;;;;;;63.90;30.05;;;;;;;8.84;100.00;102478.31;4906989;29;20039;-84
2023/04/09 03:00:29;;;;;;;72.47;33.42;;;;;;;8.85;100.00;102472.38;4905572;29;20735;-84
2023/04/09 03:02:55;;;;;;;78.63;32.85;;;;;;;8.78;100.00;102477.63;4913144;29;20031;-84
2023/04/09 03:05:20;;;;;;;62.42;30.42;;;;;;;8.81;100.00;102481.72;4913770;29;20525;-84
2023/04/09 03:07:46;;;;;;;59.17;28.98;;;;;;;8.73;100.00;102475.00;4890914;29;20557;-84
2023/04/09 03:10:11;;;;;;;60.38;30.15;;;;;;;8.84;100.00;102469.94;4909296;29;20146;-84
2023/04/09 03:12:37;;;;;;;57.17;30.02;;;;;;;8.73;100.00;102475.00;4910064;29;20031;-84
2023/04/09 03:15:03;;;;;;;56.33;28.05;;;;;;;8.86;100.00;102474.03;4912880;29;20063;-84
2023/04/09 03:17:30;;;;;;;56.38;27.48;;;;;;;8.92;100.00;102460.72;4906637;29;20131;-84
2023/04/09 03:19:56;;;;;;;57.25;28.98;;;;;;;8.86;100.00;102470.41;4914996;29;20038;-84
2023/04/09 03:22:22;;;;;;;62.75;28.98;;;;;;;8.69;100.00;102466.47;4907815;29;20561;-84
2023/04/09 03:24:47;;;;;;;67.03;30.95;;;;;;;8.69;100.00;102476.81;4903953;29;20091;-84
2023/04/09 03:27:12;;;;;;;57.67;28.60;;;;;;;8.74;100.00;102466.28;4901787;29;21222;-84
2023/04/09 03:29:38;;;;;;;53.88;26.67;;;;;;;8.72;100.00;102468.56;4908133;29;20035;-84
2023/04/09 03:32:03;;;;;;;55.15;29.75;;;;;;;8.75;100.00;102465.16;4888814;29;20507;-84
2023/04/09 03:34:28;;;;;;;66.50;31.13;;;;;;;8.44;100.00;102461.66;4909054;29;20486;-84
2023/04/09 03:36:54;;;;;;;56.70;28.35;;;;;;;8.45;100.00;102458.50;4887539;29;20431;-84
2023/04/09 03:39:19;;;;;;;61.60;28.95;;;;;;;8.73;100.00;102464.66;4912140;29;20442;-84
2023/04/09 03:41:45;;;;;;;56.53;27.92;;;;;;;8.82;100.00;102455.47;4911707;29;20127;-83
2023/04/09 03:44:11;;;;;;;46.95;25.63;;;;;;;8.89;100.00;102472.53;4914948;29;20035;-84
2023/04/09 03:46:36;;;;;;;63.53;29.88;;;;;;;8.79;100.00;102461.69;4903406;29;20115;-84
2023/04/09 03:49:02;;;;;;;60.53;27.45;;;;;;;8.60;100.00;102464.78;4890958;29;20530;-84
2023/04/09 03:51:27;;;;;;;52.15;25.85;;;;;;;8.50;100.00;102463.13;4908282;29;20667;-84
2023/04/09 03:53:52;;;;;;;55.38;28.05;;;;;;;8.73;100.00;102459.06;4910171;29;20028;-84
2023/04/09 03:56:18;;;;;;;54.00;28.10;;;;;;;8.84;100.00;102458.75;4907772;29;20047;-84
2023/04/09 03:58:43;;;;;;;57.00;27.27;;;;;;;8.75;100.00;102465.16;4911835;29;20047;-84
2023/04/09 04:01:08;;;;;;;56.55;28.73;;;;;;;8.79;100.00;102467.28;4893576;29;20482;-84
2023/04/09 04:03:34;;;;;;;57.20;27.73;;;;;;;8.89;100.00;102455.78;4893548;29;20032;-84
2023/04/09 04:06:03;;;;;;;52.70;25.58;;;;;;;8.79;100.00;102468.13;4912823;29;20090;-84
2023/04/09 04:08:28;;;;;;;59.55;27.33;;;;;;;8.64;100.00;102454.59;4908582;29;20063;-84
2023/04/09 04:10:54;;;;;;;52.15;29.38;;;;;;;8.76;100.00;102454.78;4905370;29;20585;-83
2023/04/09 04:13:19;;;;;;;56.30;26.23;;;;;;;8.63;100.00;102458.56;4908611;29;20043;-83
2023/04/09 04:15:45;;;;;;;60.05;29.05;;;;;;;8.22;100.00;102457.78;4897664;29;20038;-84
2023/04/09 04:18:10;;;;;;;59.70;27.77;;;;;;;8.26;100.00;102450.38;4901956;29;20045;-84
2023/04/09 04:20:37;;;;;;;59.30;28.73;;;;;;;8.45;100.00;102454.91;4907976;29;20031;-84
2023/04/09 04:23:03;;;;;;;54.40;25.98;;;;;;;8.45;100.00;102457.69;4905448;29;20036;-84
2023/04/09 04:25:28;;;;;;;61.72;29.02;;;;;;;8.26;100.00;102461.53;4893695;29;20415;-84
2023/04/09 04:27:54;;;;;;;51.97;24.27;;;;;;;8.37;100.00;102462.09;4900169;29;20150;-84
2023/04/09 04:30:22;;;;;;;62.00;28.17;;;;;;;8.16;100.00;102456.28;4906882;29;20051;-84
2023/04/09 04:32:48;;;;;;;49.22;27.73;;;;;;;8.47;100.00;102453.44;4908026;29;20315;-83
2023/04/09 04:35:14;;;;;;;54.72;24.90;;;;;;;8.50;100.00;102450.00;4900102;29;20114;-84
2023/04/09 04:37:39;;;;;;;62.08;29.58;;;;;;;8.55;100.00;102446.22;4905557;29;20075;-84
2023/04/09 04:40:06;;;;;;;55.30;26.45;;;;;;;8.56;100.00;102456.25;4882809;29;20035;-84
2023/04/09 04:42:31;;;;;;;67.75;29.75;;;;;;;8.54;100.00;102458.56;4907831;29;20032;-84
2023/04/09 04:44:57;;;;;;;67.70;31.45;;;;;;;8.43;100.00;102457.19;4912529;29;20042;-84
2023/04/09 04:47:22;;;;;;;61.20;28.17;;;;;;;8.66;100.00;102464.28;4905220;29;20516;-84
2023/04/09 04:49:48;;;;;;;60.22;26.92;;;;;;;8.40;100.00;102460.63;4901764;29;20035;-84
2023/04/09 04:52:13;;;;;;;58.25;28.95;;;;;;;8.38;100.00;102440.59;4909542;29;20098;-84
2023/04/09 04:54:39;;;;;;;56.20;27.33;;;;;;;8.34;100.00;102454.34;4903254;29;20168;-84
2023/04/09 04:57:04;;;;;;;64.07;28.38;;;;;;;8.40;100.00;102455.84;4908690;29;20039;-84
2023/04/09 04:59:30;;;;;;;56.60;27.67;;;;;;;8.61;100.00;102460.84;4909617;29;20069;-84
2023/04/09 05:01:55;;;;;;;57.05;27.55;;;;;;;8.55;100.00;102461.00;4901444;29;21467;-84
2023/04/09 05:04:20;;;;;;;58.22;27.92;;;;;;;8.57;100.00;102459.88;4907381;29;20031;-84
2023/04/09 05:06:46;;;;;;;55.42;27.88;;;;;;;8.65;100.00;102457.09;4901215;29;20399;-84
2023/04/09 05:09:11;;;;;;;62.10;31.40;;;;;;;8.31;100.00;102458.63;4888958;29;20880;-84
2023/04/09 05:11:36;;;;;;;57.40;27.55;;;;;;;8.43;100.00;102460.84;4909301;29;20123;-84
2023/04/09 05:14:02;;;;;;;54.15;28.73;;;;;;;8.55;100.00;102463.78;4892775;29;20031;-84
2023/04/09 05:16:27;;;;;;;59.17;29.55;;;;;;;8.43;100.00;102454.41;4883230;29;20165;-84
2023/04/09 05:18:53;;;;;;;58.58;28.33;;;;;;;8.65;100.00;102454.28;4901080;29;20039;-83
2023/04/09 05:21:18;;;;;;;50.90;26.63;;;;;;;8.74;100.00;102448.72;4902511;29;20063;-84
2023/04/09 05:23:43;;;;;;;55.13;27.60;;;;;;;8.49;100.00;102453.94;4901561;29;20062;-84
2023/04/09 05:26:09;;;;;;;60.63;29.17;;;;;;;8.49;100.00;102459.50;4891875;29;20066;-84
2023/04/09 05:28:35;;;;;;;55.67;26.52;;;;;;;8.48;100.00;102451.47;4908519;29;20564;-86
2023/04/09 05:31:00;;;;;;;54.30;28.30;;;;;;;8.59;100.00;102454.78;4904659;29;20517;-85
2023/04/09 05:33:26;;;;;;;53.22;25.92;;;;;;;8.66;100.00;102443.94;4887013;29;20040;-85
2023/04/09 05:35:52;;;;;;;52.58;26.90;;;;;;;8.62;100.00;102452.16;4902361;29;20061;-85
2023/04/09 05:38:17;;;;;;;61.80;32.58;;;;;;;8.55;100.00;102454.59;4886931;29;20599;-84
2023/04/09 05:40:44;;;;;;;49.88;26.90;;;;;;;8.61;100.00;102449.69;4891743;29;20123;-84
2023/04/09 05:43:10;;;;;;;61.15;28.17;;;;;;;8.69;100.00;102455.28;4909945;29;20473;-84
2023/04/09 05:45:35;;;;;;;59.22;29.58;;;;;;;8.60;100.00;102459.19;4897170;29;20094;-84
2023/04/09 05:48:00;;;;;;;54.05;27.55;;;;;;;8.39;100.00;102450.59;4907154;29;20044;-84
2023/04/09 05:50:26;;;;;;;55.83;27.88;;;;;;;8.50;100.00;102454.78;4888276;29;20028;-84
2023/04/09 05:52:51;;;;;;;54.95;27.30;;;;;;;8.37;100.00;102447.31;4910534;29;20139;-84
2023/04/09 05:55:17;;;;;;;53.95;25.85;;;;;;;8.64;100.00;102458.22;4888665;29;20034;-84
2023/04/09 05:57:44;;;;;;;50.33;25.95;;;;;;;8.51;100.00;102446.03;4913260;29;20079;-85
2023/04/09 06:00:10;;;;;;;53.75;26.45;;;;;;;8.34;100.00;102457.97;4908288;29;20078;-84
2023/04/09 06:02:35;;;;;;;54.05;26.20;;;;;;;8.30;100.00;102450.56;4893847;29;20046;-85
2023/04/09 06:05:00;;;;;;;51.15;25.25;;;;;;;8.59;100.00;102469.56;4890393;29;20478;-84
2023/04/09 06:07:26;;;;;;;45.05;23.92;;;;;;;8.45;100.00;102457.69;4908255;29;20118;-84
2023/04/09 06:09:51;;;;;;;41.15;22.70;;;;;;;8.56;100.00;102459.06;4913995;29;20042;-85
2023/04/09 06:12:16;;;;;;;47.88;24.10;;;;;;;8.47;100.00;102456.22;4911945;29;20035;-84
2023/04/09 06:14:42;;;;;;;49.67;24.50;;;;;;;8.52;100.00;102480.38;4908048;29;20044;-84
2023/04/09 06:17:07;;;;;;;46.05;23.30;;;;;;;8.54;100.00;102472.50;4904671;29;20070;-84
2023/04/09 06:19:32;;;;;;;47.25;23.15;;;;;;;8.59;100.00;102463.97;4903284;29;20479;-84
2023/04/09 06:21:58;;;;;;;45.85;22.00;;;;;;;8.40;100.00;102458.66;4906246;29;20516;-84
2023/04/09 06:24:23;;;;;;;44.88;20.67;;;;;;;8.48;100.00;102462.66;4892210;29;20042;-84
2023/04/09 06:26:49;;;;;;;49.08;24.73;;;;;;;8.38;100.00;102468.50;4906024;29;20367;-84
2023/04/09 06:29:14;;;;;;;41.83;23.65;;;;;;;8.46;100.00;102465.75;4909581;29;20035;-83
2023/04/09 06:31:40;;;;;;;45.67;24.02;;;;;;;8.51;100.00;102467.56;4907471;29;20130;-84
2023/04/09 06:34:06;;;;;;;48.63;24.05;;;;;;;8.53;100.00;102459.69;4881457;29;20552;-84
2023/04/09 06:36:32;;;;;;;46.83;23.45;;;;;;;8.60;100.00;102462.84;4902528;29;20121;-84
2023/04/09 06:38:58;;;;;;;46.55;24.40;;;;;;;8.68;100.00;102456.41;4905314;29;20114;-84
2023/04/09 06:41:24;;;;;;;46.72;22.05;;;;;;;8.69;100.00;102462.84;4907787;29;20090;-84
2023/04/09 06:43:49;;;;;;;44.83;22.27;;;;;;;8.75;100.00;102467.13;4897850;29;20153;-84
2023/04/09 06:46:16;;;;;;;44.55;21.50;;;;;;;8.59;100.00;102463.16;4919667;29;20397;-84
2023/04/09 06:48:43;;;;;;;43.38;22.08;;;;;;;8.47;100.00;102472.97;4919381;29;20706;-84
2023/04/09 06:51:10;;;;;;;44.80;21.33;;;;;;;8.45;100.00;102464.09;4909548;29;20545;-84
2023/04/09 06:53:36;;;;;;;44.50;21.75;;;;;;;8.65;100.00;102476.63;4911687;29;20451;-85
2023/04/09 06:56:02;;;;;;;42.78;21.30;;;;;;;8.49;100.00;102470.66;4907360;29;20167;-84
2023/04/09 06:58:27;;;;;;;41.33;22.75;;;;;;;8.57;100.00;102480.22;4910086;29;20493;-83
2023/04/09 07:00:52;;;;;;;48.03;23.65;;;;;;;8.64;100.00;102477.75;4905497;29;21343;-84
2023/04/09 07:03:18;;;;;;;40.45;21.17;;;;;;;8.66;100.00;102475.47;4915429;29;20328;-84
2023/04/09 07:05:43;;;;;;;45.58;21.77;;;;;;;8.63;100.00;102472.53;4912327;29;20067;-84
2023/04/09 07:08:09;;;;;;;44.58;22.30;;;;;;;8.67;100.00;102471.53;4916625;29;20027;-83
2023/04/09 07:10:34;;;;;;;44.20;22.75;;;;;;;8.76;100.00;102474.34;4918949;29;20122;-84
2023/04/09 07:13:00;;;;;;;46.17;23.75;;;;;;;8.72;100.00;102482.53;4925271;29;20030;-84
2023/04/09 07:15:25;;;;;;;41.38;20.83;;;;;;;8.67;100.00;102477.13;4924780;29;20035;-84
2023/04/09 07:17:51;;;;;;;38.88;20.65;;;;;;;8.81;100.00;102484.53;4902041;29;20055;-84
2023/04/09 07:20:16;;;;;;;37.88;21.08;;;;;;;8.75;100.00;102479.09;4924499;29;20062;-84
2023/04/09 07:22:41;;;;;;;43.22;20.92;;;;;;;8.79;100.00;102489.63;4924303;29;20466;-84
2023/04/09 07:25:07;;;;;;;50.13;24.45;;;;;;;8.87;100.00;102494.38;4925315;29;20070;-84
2023/04/09 07:27:32;;;;;;;45.17;21.65;;;;;;;8.90;100.00;102496.53;4926539;29;20042;-84
2023/04/09 07:29:58;;;;;;;45.00;22.45;;;;;;;9.00;100.00;102496.19;4911594;29;20028;-84
2023/04/09 07:32:26;;;;;;;43.70;23.75;;;;;;;8.98;100.00;102495.72;4928036;29;20108;-84
2023/04/09 07:34:53;;;;;;;44.85;23.33;;;;;;;9.08;100.00;102489.78;4931853;29;20119;-84
2023/04/09 07:37:19;;;;;;;47.80;23.73;;;;;;;9.09;100.00;102493.44;4935188;29;20036;-84
2023/04/09 07:39:45;;;;;;;49.28;25.13;;;;;;;9.12;100.00;102493.56;4918281;29;20031;-84
2023/04/09 07:42:11;;;;;;;51.53;24.70;;;;;;;9.17;100.00;102495.41;4906040;29;20397;-84
2023/04/09 07:44:37;;;;;;;48.72;24.10;;;;;;;9.17;100.00;102487.03;4907898;29;20063;-84
2023/04/09 07:47:03;;;;;;;45.47;23.83;;;;;;;9.13;100.00;102483.25;4903436;29;20567;-84
2023/04/09 07:49:29;;;;;;;44.28;22.85;;;;;;;9.16;100.00;102485.38;4927263;29;20125;-84
2023/04/09 07:51:55;;;;;;;47.97;24.10;;;;;;;9.24;100.00;102490.13;4921532;29;20051;-84
2023/04/09 07:54:20;;;;;;;49.50;25.10;;;;;;;9.33;100.00;102481.75;4928860;29;20076;-83
2023/04/09 07:56:46;;;;;;;54.15;26.73;;;;;;;9.43;100.00;102481.41;4924191;29;20526;-84
2023/04/09 07:59:14;;;;;;;48.13;23.60;;;;;;;9.45;100.00;102467.91;4901828;29;20027;-84
2023/04/09 08:01:39;;;;;;;51.75;26.55;;;;;;;9.52;100.00;102482.19;4903984;29;20070;-84
2023/04/09 08:04:05;;;;;;;55.97;27.30;;;;;;;9.50;100.00;102492.06;4926465;29;20152;-85
2023/04/09 08:06:30;;;;;;;50.30;26.35;;;;;;;9.42;100.00;102482.53;4929843;29;20058;-84
2023/04/09 08:08:56;;;;;;;49.63;25.95;;;;;;;9.39;100.00;102485.19;4927115;29;20405;-84
2023/04/09 08:11:24;;;;;;;56.95;28.60;;;;;;;9.36;100.00;102484.72;4901312;29;20044;-83
2023/04/09 08:13:52;;;;;;;48.33;25.00;;;;;;;9.56;100.00;102499.97;4924662;29;20039;-84
2023/04/09 08:16:19;;;;;;;48.63;25.42;;;;;;;9.57;100.00;102501.63;4922903;29;20027;-84
2023/04/09 08:18:45;;;;;;;55.47;27.33;;;;;;;9.75;100.00;102495.97;4906148;29;20040;-84
2023/04/09 08:21:10;;;;;;;53.95;25.63;;;;;;;9.81;100.00;102497.44;4905820;29;20401;-84
2023/04/09 08:23:36;;;;;;;56.25;26.63;;;;;;;9.97;100.00;102489.31;4928910;29;20063;-84
2023/04/09 08:26:02;;;;;;;46.17;24.63;;;;;;;10.10;100.00;102487.50;4907651;29;20448;-84
2023/04/09 08:28:27;;;;;;;53.55;25.50;;;;;;;10.06;100.00;102489.31;4907322;29;20118;-84
2023/04/09 08:30:52;;;;;;;48.30;24.95;;;;;;;9.96;100.00;102491.31;4925023;29;20122;-84
2023/04/09 08:33:18;;;;;;;49.88;25.85;;;;;;;10.02;100.00;102483.56;4924611;29;20034;-84
2023/04/09 08:35:44;;;;;;;50.47;27.00;;;;;;;10.05;100.00;102479.25;4926766;29;20047;-84
2023/04/09 08:38:10;;;;;;;51.08;24.88;;;;;;;10.20;100.00;102480.69;4922827;29;20152;-84
2023/04/09 08:40:36;;;;;;;53.88;24.35;;;;;;;10.44;100.00;102474.50;4923589;29;20032;-84
2023/04/09 08:43:05;;;;;;;47.38;23.65;;;;;;;10.29;100.00;102478.69;4922403;29;20030;-85
2023/04/09 08:45:31;;;;;;;54.10;24.90;;;;;;;10.59;100.00;102476.72;4920008;29;20130;-83
2023/04/09 08:48:01;;;;;;;46.70;23.13;;;;;;;10.66;100.00;102482.59;4904865;29;20458;-84
2023/04/09 08:50:27;;;;;;;51.67;25.35;;;;;;;10.64;100.00;102490.50;4922755;29;20032;-84
2023/04/09 08:52:54;;;;;;;48.55;24.45;;;;;;;10.56;100.00;102481.03;4911638;29;20506;-83
2023/04/09 08:55:21;;;;;;;51.45;24.13;;;;;;;10.74;100.00;102478.91;4922328;29;20122;-84
2023/04/09 08:57:46;;;;;;;49.95;23.55;;;;;;;10.81;100.00;102483.16;4921584;29;20483;-84
2023/04/09 09:00:12;;;;;;;51.38;24.27;;;;;;;10.85;100.00;102484.13;4906997;29;20035;-83
2023/04/09 09:02:38;;;;;;;50.05;26.20;;;;;;;10.71;100.00;102474.00;4921743;29;20514;-84
2023/04/09 09:05:04;;;;;;;45.88;23.52;;;;;;;10.97;100.00;102479.41;4899503;29;20454;-84
2023/04/09 09:07:31;;;;;;;48.17;25.05;;;;;;;11.15;100.00;102477.28;4924868;29;20634;-84
2023/04/09 09:10:03;;;;;;;42.95;22.90;;;;;;;11.17;100.00;102480.56;4919367;29;20039;-84
2023/04/09 09:12:33;;;;;;;45.30;25.02;;;;;;;11.25;100.00;102470.44;4918427;29;20071;-84
2023/04/09 09:14:58;;;;;;;45.45;22.20;;;;;;;10.98;98.36;102469.84;4917769;29;20039;-84
2023/04/09 09:17:23;;;;;;;44.42;22.63;;;;;;;10.98;100.00;102469.00;4918417;29;20027;-84
2023/04/09 09:19:49;;;;;;;43.55;22.75;;;;;;;11.33;98.90;102457.50;4922931;29;20039;-84
2023/04/09 09:22:14;;;;;;;40.08;19.23;;;;;;;11.72;94.47;102469.28;4925110;29;20035;-85
2023/04/09 09:24:47;;;;;;;39.58;19.88;;;;;;;11.48;94.94;102468.06;4920216;29;20406;-84
2023/04/09 09:27:35;;;;;;;39.67;21.23;;;;;;;11.48;92.87;102468.06;4898896;29;20032;-85
2023/04/09 09:30:03;;;;;;;47.47;22.27;;;;;;;11.47;96.05;102458.03;4921906;29;20066;-84
2023/04/09 09:32:29;;;;;;;41.35;20.58;;;;;;;11.59;97.80;102462.84;4900551;29;20032;-85
2023/04/09 09:35:13;;;;;;;41.40;19.88;;;;;;;11.48;89.24;102462.47;4923704;29;20031;-84
2023/04/09 09:37:38;;;;;;;36.63;18.67;;;;;;;11.88;90.58;102459.09;4926343;29;20402;-82
2023/04/09 09:40:04;;;;;;;40.15;20.98;;;;;;;11.73;91.29;102456.94;4926208;29;20035;-82
2023/04/09 09:42:30;;;;;;;34.88;18.35;;;;;;;11.95;90.47;102464.97;4921317;29;20044;-83
2023/04/09 09:44:57;;;;;;;40.35;20.10;;;;;;;12.04;88.04;102448.00;4905089;29;20066;-86
2023/04/09 09:47:24;;;;;;;39.35;22.25;;;;;;;11.93;89.97;102461.69;4924039;29;20031;-82
2023/04/09 09:49:50;;;;;;;38.05;19.70;;;;;;;12.18;89.94;102461.69;4921260;29;20028;-86
2023/04/09 09:52:24;;;;;;;39.88;20.33;;;;;;;12.23;87.73;102450.22;4908501;29;20406;-87
2023/04/09 09:54:51;;;;;;;40.53;19.63;;;;;;;12.27;95.49;102447.53;4909580;29;20079;-84
2023/04/09 09:57:19;;;;;;;40.47;21.55;;;;;;;12.48;86.35;102455.81;4920837;29;20047;-84
2023/04/09 09:59:59;;;;;;;39.10;19.98;;;;;;;12.55;88.47;102445.63;4906708;29;20042;-85
2023/04/09 10:02:29;;;;;;;43.75;20.10;;;;;;;12.72;87.27;102455.78;4927586;29;20047;-87
2023/04/09 10:04:59;;;;;;;43.95;22.88;;;;;;;12.64;88.40;102453.94;4921658;29;20595;-83
2023/04/09 10:07:25;;;;;;;48.03;22.90;;;;;;;12.88;87.24;102438.19;4922070;29;20039;-87
2023/04/09 10:09:53;;;;;;;45.53;21.73;;;;;;;12.87;89.00;102439.38;4925293;29;20024;-84
2023/04/09 10:12:22;;;;;;;44.10;21.83;;;;;;;12.75;86.41;102441.00;4923595;29;20078;-86
2023/04/09 10:14:49;;;;;;;43.45;21.27;;;;;;;12.86;84.97;102423.66;4926432;29;20034;-86
2023/04/09 10:17:16;;;;;;;44.85;21.33;;;;;;;13.08;85.31;102433.56;4921052;29;20036;-86
2023/04/09 10:19:51;;;;;;;45.17;24.25;;;;;;;13.32;85.74;102430.66;4911929;29;20166;-84
2023/04/09 10:22:21;;;;;;;47.67;23.65;;;;;;;13.28;83.99;102431.69;4924428;29;20031;-87
2023/04/09 10:24:47;;;;;;;43.15;23.48;;;;;;;13.40;84.81;102424.03;4911183;29;20472;-87
2023/04/09 10:27:15;;;;;;;44.85;21.95;;;;;;;13.76;84.64;102427.00;4907172;29;20122;-88
2023/04/09 10:29:45;;;;;;;39.60;22.00;;;;;;;13.40;82.41;102417.63;4923587;29;20050;-85
2023/04/09 10:32:12;;;;;;;43.25;22.55;;;;;;;13.58;84.75;102418.09;4922424;29;20482;-83
2023/04/09 10:34:39;;;;;;;34.40;18.77;;;;;;;13.12;83.56;102407.19;4895624;29;20465;-87
2023/04/09 10:37:07;;;;;;;37.83;19.20;;;;;;;13.64;89.01;102419.47;4919915;29;20031;-88
2023/04/09 10:39:32;;;;;;;40.00;22.15;;;;;;;13.17;85.93;102412.53;4925710;29;20031;-83
2023/04/09 10:42:10;;;;;;;41.97;22.75;;;;;;;13.35;86.46;102415.06;4928251;29;20050;-83
2023/04/09 10:44:40;;;;;;;39.15;22.05;;;;;;;13.21;90.65;102407.81;4924233;29;20032;-82
2023/04/09 10:47:07;;;;;;;39.15;20.77;;;;;;;14.03;92.50;102414.84;4928155;29;20034;-91
2023/04/09 10:49:37;;;;;;;33.05;18.52;;;;;;;14.12;80.41;102414.63;4911250;29;20179;-91
2023/04/09 10:52:05;;;;;;;45.40;24.27;;;;;;;14.41;80.64;102404.88;4907505;29;20084;-88
2023/04/09 10:54:33;;;;;;;34.58;18.30;;;;;;;14.02;78.72;102407.59;4926947;29;20059;-91
2023/04/09 10:57:07;;;;;;;38.00;21.17;;;;;;;14.16;76.66;102403.47;4927082;29;20039;-86
2023/04/09 10:59:45;;;;;;;43.38;22.38;;;;;;;14.50;76.96;102387.75;4926446;29;20401;-91
2023/04/09 11:02:35;;;;;;;37.10;19.88;;;;;;;14.68;75.65;102407.91;4927835;29;20036;-82
2023/04/09 11:05:29;;;;;;;32.15;16.00;;;;;;;15.04;76.49;102405.84;4925310;29;20039;-84
2023/04/09 11:08:11;;;;;;;27.40;16.77;;;;;;;14.91;72.54;102402.38;4926602;29;20019;-83
2023/04/09 11:10:38;;;;;;;29.67;16.23;;;;;;;14.63;72.55;102389.31;4910957;29;20031;-84